Terminal Aerodrome Forecast
Issued by NWS

Home | Current Version | Previous Version | Text Only | Print | Product List | Glossary On
Versions: 1 2 3 4 5 6 7 8 9 10 11 12 13 14 15 16 17 18 19 20 21
000
FTUS43 KDMX 041507 AAB
TAFOTM
TAF AMD
KOTM 041507Z 0415/0512 15008KT 3SM -RASN OVC006
      TEMPO 0415/0417 1SM -SN OVC004
     FM041700 20009KT P6SM OVC009
     FM042100 24007KT P6SM BKN015
     FM050000 23006KT P6SM SCT020
     FM050600 17005KT 5SM BR SCT010=

USA.gov is the U.S. government's official web portal to all federal, state and local government web resources and services.